createdAt,value
2023-04-11T06:20:44.869Z,6.56
2023-04-11T06:30:44.937Z,6.51
2023-04-11T06:40:44.856Z,6.78
2023-04-11T06:50:44.835Z,6.40
2023-04-11T07:00:44.855Z,6.32
2023-04-11T07:10:45.098Z,6.42
2023-04-11T07:20:45.076Z,6.60
2023-04-11T07:30:44.896Z,6.76
2023-04-11T07:40:44.924Z,6.81
2023-04-11T07:50:44.962Z,7.07
2023-04-11T08:00:44.992Z,7.40
2023-04-11T08:10:45.267Z,7.73
2023-04-11T08:20:45.185Z,7.92
2023-04-11T08:30:45.247Z,8.09
2023-04-11T08:40:45.384Z,8.46
2023-04-11T08:50:45.256Z,8.66
2023-04-11T09:00:45.295Z,8.52
2023-04-11T09:10:45.351Z,7.56
2023-04-11T09:20:45.247Z,6.80
2023-04-11T09:30:45.295Z,6.80
2023-04-11T09:40:45.260Z,7.92
2023-04-11T09:50:45.334Z,8.72
2023-04-11T10:00:45.287Z,6.39
2023-04-11T10:10:45.218Z,6.57
2023-04-11T10:20:45.133Z,7.39
2023-04-11T10:30:45.139Z,7.95
2023-04-11T10:40:46.178Z,8.90
2023-04-11T10:50:45.171Z,8.54
2023-04-11T11:00:45.309Z,9.29
2023-04-11T11:10:45.360Z,9.78
2023-04-11T11:20:45.303Z,10.15
2023-04-11T11:30:45.270Z,9.98
2023-04-11T11:40:45.313Z,10.90
2023-04-11T11:50:45.393Z,10.94
2023-04-11T12:00:45.368Z,11.22
2023-04-11T12:10:45.256Z,11.21
2023-04-11T12:20:45.440Z,10.76
2023-04-11T12:30:45.386Z,10.94
2023-04-11T12:40:45.264Z,10.93
2023-04-11T12:50:45.398Z,11.04
2023-04-11T13:00:45.328Z,9.83
2023-04-11T13:10:45.435Z,8.97
2023-04-11T13:20:45.409Z,8.94
2023-04-11T13:30:45.670Z,9.32
2023-04-11T13:40:45.413Z,9.35
2023-04-11T13:50:45.511Z,9.30
2023-04-11T14:00:45.618Z,10.18
2023-04-11T14:10:45.626Z,10.55
2023-04-11T14:20:45.575Z,9.96
2023-04-11T14:30:45.458Z,10.11
2023-04-11T14:40:45.419Z,8.41
2023-04-11T14:50:45.466Z,7.47
2023-04-11T15:00:45.353Z,8.67
2023-04-11T15:10:45.457Z,9.57
2023-04-11T15:20:45.457Z,10.40
2023-04-11T15:30:45.510Z,9.57
2023-04-11T15:40:45.542Z,9.32
2023-04-11T15:50:45.660Z,8.97
2023-04-11T16:00:45.509Z,9.07
2023-04-11T16:10:45.786Z,9.65
2023-04-11T16:20:45.467Z,10.70
2023-04-11T16:30:45.517Z,10.38
2023-04-11T16:40:45.636Z,10.22
2023-04-11T16:50:45.527Z,10.76
2023-04-11T17:00:45.586Z,10.88
2023-04-11T17:10:45.685Z,10.46
2023-04-11T17:20:45.610Z,9.50
2023-04-11T17:30:45.806Z,8.85
2023-04-11T17:40:45.584Z,8.44
2023-04-11T17:50:45.750Z,8.28
2023-04-11T18:00:55.568Z,7.90
2023-04-11T18:10:45.501Z,7.71
2023-04-11T18:20:45.626Z,6.24
2023-04-11T18:30:45.539Z,5.89
2023-04-11T18:40:46.149Z,5.79
2023-04-11T18:50:45.624Z,5.03
2023-04-11T19:00:45.960Z,5.27
2023-04-11T19:10:45.949Z,4.29
2023-04-11T19:20:46.196Z,4.60
